sensor_id;sensor_type;location;lat;lon;timestamp;P1;durP1;ratioP1;P2;durP2;ratioP2
58972;SDS011;44750;52.040;7.472;2023-04-25T00:01:28;2.25;;;1.35;;
58972;SDS011;44750;52.040;7.472;2023-04-25T00:06:28;7.07;;;2.00;;
58972;SDS011;44750;52.040;7.472;2023-04-25T00:11:29;1.55;;;1.25;;
58972;SDS011;44750;52.040;7.472;2023-04-25T00:16:29;1.20;;;1.02;;
58972;SDS011;44750;52.040;7.472;2023-04-25T00:21:30;1.25;;;1.15;;
58972;SDS011;44750;52.040;7.472;2023-04-25T00:26:30;1.13;;;0.98;;
58972;SDS011;44750;52.040;7.472;2023-04-25T00:31:30;2.17;;;1.33;;
58972;SDS011;44750;52.040;7.472;2023-04-25T00:36:31;1.10;;;1.00;;
58972;SDS011;44750;52.040;7.472;2023-04-25T00:41:31;1.00;;;0.90;;
58972;SDS011;44750;52.040;7.472;2023-04-25T00:46:32;2.17;;;1.15;;
58972;SDS011;44750;52.040;7.472;2023-04-25T00:51:35;13.10;;;1.42;;
58972;SDS011;44750;52.040;7.472;2023-04-25T00:56:35;1.98;;;1.10;;
58972;SDS011;44750;52.040;7.472;2023-04-25T01:01:35;2.07;;;1.10;;
58972;SDS011;44750;52.040;7.472;2023-04-25T01:06:36;1.23;;;0.98;;
58972;SDS011;44750;52.040;7.472;2023-04-25T01:11:36;1.27;;;1.13;;
58972;SDS011;44750;52.040;7.472;2023-04-25T01:16:36;1.00;;;0.80;;
58972;SDS011;44750;52.040;7.472;2023-04-25T01:21:36;2.35;;;1.00;;
58972;SDS011;44750;52.040;7.472;2023-04-25T01:26:37;1.60;;;0.90;;
58972;SDS011;44750;52.040;7.472;2023-04-25T01:31:37;2.22;;;1.13;;
58972;SDS011;44750;52.040;7.472;2023-04-25T01:36:38;1.45;;;1.25;;
58972;SDS011;44750;52.040;7.472;2023-04-25T01:41:39;10.00;;;1.75;;
58972;SDS011;44750;52.040;7.472;2023-04-25T01:46:39;3.15;;;1.55;;
58972;SDS011;44750;52.040;7.472;2023-04-25T01:51:40;1.45;;;1.10;;
58972;SDS011;44750;52.040;7.472;2023-04-25T01:56:40;1.98;;;1.70;;
58972;SDS011;44750;52.040;7.472;2023-04-25T02:01:40;2.92;;;1.30;;
58972;SDS011;44750;52.040;7.472;2023-04-25T02:06:41;3.30;;;1.73;;
58972;SDS011;44750;52.040;7.472;2023-04-25T02:11:41;8.23;;;2.05;;
58972;SDS011;44750;52.040;7.472;2023-04-25T02:16:41;6.50;;;1.83;;
58972;SDS011;44750;52.040;7.472;2023-04-25T02:21:41;0.90;;;0.88;;
58972;SDS011;44750;52.040;7.472;2023-04-25T02:26:42;2.30;;;1.45;;
58972;SDS011;44750;52.040;7.472;2023-04-25T02:31:42;2.00;;;1.30;;
58972;SDS011;44750;52.040;7.472;2023-04-25T02:36:42;6.28;;;2.38;;
58972;SDS011;44750;52.040;7.472;2023-04-25T02:41:42;4.50;;;2.38;;
58972;SDS011;44750;52.040;7.472;2023-04-25T02:46:43;4.80;;;1.50;;
58972;SDS011;44750;52.040;7.472;2023-04-25T02:51:43;3.53;;;1.50;;
58972;SDS011;44750;52.040;7.472;2023-04-25T02:56:43;2.90;;;1.40;;
58972;SDS011;44750;52.040;7.472;2023-04-25T03:01:43;7.13;;;2.50;;
58972;SDS011;44750;52.040;7.472;2023-04-25T03:06:43;3.50;;;1.55;;
58972;SDS011;44750;52.040;7.472;2023-04-25T03:11:44;11.18;;;2.10;;
58972;SDS011;44750;52.040;7.472;2023-04-25T03:16:44;2.53;;;1.58;;
58972;SDS011;44750;52.040;7.472;2023-04-25T03:21:45;1.55;;;1.23;;
58972;SDS011;44750;52.040;7.472;2023-04-25T03:26:45;9.00;;;2.78;;
58972;SDS011;44750;52.040;7.472;2023-04-25T03:31:45;2.45;;;1.60;;
58972;SDS011;44750;52.040;7.472;2023-04-25T03:36:45;4.88;;;1.75;;
58972;SDS011;44750;52.040;7.472;2023-04-25T03:41:46;4.82;;;1.73;;
58972;SDS011;44750;52.040;7.472;2023-04-25T03:46:46;3.60;;;2.03;;
58972;SDS011;44750;52.040;7.472;2023-04-25T03:51:46;4.70;;;2.08;;
58972;SDS011;44750;52.040;7.472;2023-04-25T03:56:46;2.40;;;1.92;;
58972;SDS011;44750;52.040;7.472;2023-04-25T04:01:46;2.05;;;1.42;;
58972;SDS011;44750;52.040;7.472;2023-04-25T04:06:47;2.90;;;1.65;;
58972;SDS011;44750;52.040;7.472;2023-04-25T04:11:47;6.88;;;2.28;;
58972;SDS011;44750;52.040;7.472;2023-04-25T04:16:47;11.90;;;2.37;;
58972;SDS011;44750;52.040;7.472;2023-04-25T04:21:48;2.85;;;1.83;;
58972;SDS011;44750;52.040;7.472;2023-04-25T04:26:48;4.78;;;1.50;;
58972;SDS011;44750;52.040;7.472;2023-04-25T04:31:49;3.38;;;1.90;;
58972;SDS011;44750;52.040;7.472;2023-04-25T04:36:49;2.65;;;1.77;;
58972;SDS011;44750;52.040;7.472;2023-04-25T04:41:50;2.95;;;1.67;;
58972;SDS011;44750;52.040;7.472;2023-04-25T04:46:50;2.20;;;1.75;;
58972;SDS011;44750;52.040;7.472;2023-04-25T04:51:50;4.18;;;1.73;;
58972;SDS011;44750;52.040;7.472;2023-04-25T04:56:51;2.10;;;1.77;;
58972;SDS011;44750;52.040;7.472;2023-04-25T05:01:52;1.92;;;1.45;;
58972;SDS011;44750;52.040;7.472;2023-04-25T05:06:52;5.57;;;2.38;;
58972;SDS011;44750;52.040;7.472;2023-04-25T05:11:52;8.75;;;1.60;;
58972;SDS011;44750;52.040;7.472;2023-04-25T05:16:53;3.53;;;2.00;;
58972;SDS011;44750;52.040;7.472;2023-04-25T05:21:53;1.97;;;1.57;;
58972;SDS011;44750;52.040;7.472;2023-04-25T05:26:53;3.17;;;1.73;;
58972;SDS011;44750;52.040;7.472;2023-04-25T05:31:56;3.95;;;2.00;;
58972;SDS011;44750;52.040;7.472;2023-04-25T05:36:56;4.25;;;1.67;;
58972;SDS011;44750;52.040;7.472;2023-04-25T05:41:56;4.35;;;1.58;;
58972;SDS011;44750;52.040;7.472;2023-04-25T05:46:57;2.80;;;1.57;;
58972;SDS011;44750;52.040;7.472;2023-04-25T05:51:57;10.73;;;2.17;;
58972;SDS011;44750;52.040;7.472;2023-04-25T05:56:57;3.33;;;1.60;;
58972;SDS011;44750;52.040;7.472;2023-04-25T06:01:57;2.72;;;1.27;;
58972;SDS011;44750;52.040;7.472;2023-04-25T06:06:58;1.88;;;1.27;;
58972;SDS011;44750;52.040;7.472;2023-04-25T06:12:01;4.93;;;2.25;;
58972;SDS011;44750;52.040;7.472;2023-04-25T06:17:01;1.55;;;1.00;;
58972;SDS011;44750;52.040;7.472;2023-04-25T06:22:02;5.55;;;2.25;;
58972;SDS011;44750;52.040;7.472;2023-04-25T06:27:02;2.25;;;1.33;;
58972;SDS011;44750;52.040;7.472;2023-04-25T06:32:03;2.75;;;1.27;;
58972;SDS011;44750;52.040;7.472;2023-04-25T06:37:03;2.78;;;1.67;;
58972;SDS011;44750;52.040;7.472;2023-04-25T06:42:03;3.33;;;1.45;;
58972;SDS011;44750;52.040;7.472;2023-04-25T06:47:04;2.90;;;1.83;;
58972;SDS011;44750;52.040;7.472;2023-04-25T06:52:04;3.70;;;1.60;;
58972;SDS011;44750;52.040;7.472;2023-04-25T06:57:04;1.55;;;1.20;;
58972;SDS011;44750;52.040;7.472;2023-04-25T07:02:05;1.80;;;1.23;;
58972;SDS011;44750;52.040;7.472;2023-04-25T07:07:05;1.55;;;1.20;;
58972;SDS011;44750;52.040;7.472;2023-04-25T07:12:05;4.57;;;1.73;;
58972;SDS011;44750;52.040;7.472;2023-04-25T07:17:06;6.17;;;1.77;;
58972;SDS011;44750;52.040;7.472;2023-04-25T07:22:06;1.88;;;1.20;;
58972;SDS011;44750;52.040;7.472;2023-04-25T07:27:06;2.40;;;0.95;;
58972;SDS011;44750;52.040;7.472;2023-04-25T07:32:06;7.88;;;1.60;;
58972;SDS011;44750;52.040;7.472;2023-04-25T07:37:07;1.20;;;0.80;;
58972;SDS011;44750;52.040;7.472;2023-04-25T07:42:07;1.75;;;1.45;;
58972;SDS011;44750;52.040;7.472;2023-04-25T07:47:07;1.55;;;0.95;;
58972;SDS011;44750;52.040;7.472;2023-04-25T07:52:08;1.83;;;1.23;;
58972;SDS011;44750;52.040;7.472;2023-04-25T07:57:08;1.40;;;0.90;;
58972;SDS011;44750;52.040;7.472;2023-04-25T08:02:09;4.50;;;1.85;;
58972;SDS011;44750;52.040;7.472;2023-04-25T08:07:09;2.53;;;1.17;;
58972;SDS011;44750;52.040;7.472;2023-04-25T08:12:09;2.83;;;1.40;;
58972;SDS011;44750;52.040;7.472;2023-04-25T08:17:09;1.10;;;0.75;;
58972;SDS011;44750;52.040;7.472;2023-04-25T08:22:10;1.40;;;0.95;;
58972;SDS011;44750;52.040;7.472;2023-04-25T08:27:10;3.22;;;0.93;;
58972;SDS011;44750;52.040;7.472;2023-04-25T08:32:10;1.33;;;0.85;;
58972;SDS011;44750;52.040;7.472;2023-04-25T08:37:10;1.33;;;1.00;;
58972;SDS011;44750;52.040;7.472;2023-04-25T08:42:11;10.23;;;1.98;;
58972;SDS011;44750;52.040;7.472;2023-04-25T08:47:12;0.47;;;0.47;;
58972;SDS011;44750;52.040;7.472;2023-04-25T08:52:12;1.33;;;0.70;;
58972;SDS011;44750;52.040;7.472;2023-04-25T08:57:13;1.02;;;0.65;;
58972;SDS011;44750;52.040;7.472;2023-04-25T09:02:15;1.42;;;0.80;;
58972;SDS011;44750;52.040;7.472;2023-04-25T09:07:15;1.37;;;0.70;;
58972;SDS011;44750;52.040;7.472;2023-04-25T09:12:16;7.03;;;0.85;;
58972;SDS011;44750;52.040;7.472;2023-04-25T09:17:19;1.15;;;0.68;;
58972;SDS011;44750;52.040;7.472;2023-04-25T09:22:19;0.70;;;0.50;;
58972;SDS011;44750;52.040;7.472;2023-04-25T09:27:20;1.33;;;0.73;;
58972;SDS011;44750;52.040;7.472;2023-04-25T09:32:22;2.13;;;0.90;;
58972;SDS011;44750;52.040;7.472;2023-04-25T09:37:27;0.68;;;0.40;;
58972;SDS011;44750;52.040;7.472;2023-04-25T09:42:29;0.90;;;0.30;;
58972;SDS011;44750;52.040;7.472;2023-04-25T09:47:29;0.65;;;0.50;;
58972;SDS011;44750;52.040;7.472;2023-04-25T09:52:29;0.85;;;0.65;;
58972;SDS011;44750;52.040;7.472;2023-04-25T09:57:29;1.00;;;0.68;;
58972;SDS011;44750;52.040;7.472;2023-04-25T10:02:30;0.93;;;0.52;;
58972;SDS011;44750;52.040;7.472;2023-04-25T10:07:32;0.93;;;0.77;;
58972;SDS011;44750;52.040;7.472;2023-04-25T10:12:34;0.60;;;0.55;;
58972;SDS011;44750;52.040;7.472;2023-04-25T10:17:35;0.68;;;0.50;;
58972;SDS011;44750;52.040;7.472;2023-04-25T10:22:39;0.45;;;0.38;;
58972;SDS011;44750;52.040;7.472;2023-04-25T10:27:42;2.28;;;0.73;;
58972;SDS011;44750;52.040;7.472;2023-04-25T10:32:43;1.83;;;0.73;;
58972;SDS011;44750;52.040;7.472;2023-04-25T10:48:38;1.42;;;0.77;;
58972;SDS011;44750;52.040;7.472;2023-04-25T10:53:46;0.65;;;0.60;;
58972;SDS011;44750;52.040;7.472;2023-04-25T10:58:47;0.85;;;0.30;;
58972;SDS011;44750;52.040;7.472;2023-04-25T11:03:47;1.27;;;0.80;;
58972;SDS011;44750;52.040;7.472;2023-04-25T11:08:49;0.52;;;0.52;;
58972;SDS011;44750;52.040;7.472;2023-04-25T11:13:50;1.02;;;0.73;;
58972;SDS011;44750;52.040;7.472;2023-04-25T11:18:50;1.13;;;0.65;;
58972;SDS011;44750;52.040;7.472;2023-04-25T11:23:51;1.70;;;0.75;;
58972;SDS011;44750;52.040;7.472;2023-04-25T11:28:51;0.95;;;0.32;;
58972;SDS011;44750;52.040;7.472;2023-04-25T11:33:53;0.43;;;0.40;;
58972;SDS011;44750;52.040;7.472;2023-04-25T11:38:54;0.20;;;0.20;;
58972;SDS011;44750;52.040;7.472;2023-04-25T11:43:56;1.60;;;0.40;;
58972;SDS011;44750;52.040;7.472;2023-04-25T11:48:57;1.17;;;0.57;;
58972;SDS011;44750;52.040;7.472;2023-04-25T11:53:57;0.55;;;0.45;;
58972;SDS011;44750;52.040;7.472;2023-04-25T11:59:01;0.65;;;0.30;;
58972;SDS011;44750;52.040;7.472;2023-04-25T12:09:20;0.40;;;0.40;;
58972;SDS011;44750;52.040;7.472;2023-04-25T12:14:28;0.50;;;0.50;;
58972;SDS011;44750;52.040;7.472;2023-04-25T12:19:34;2.70;;;0.80;;
58972;SDS011;44750;52.040;7.472;2023-04-25T12:24:35;0.60;;;0.55;;
58972;SDS011;44750;52.040;7.472;2023-04-25T12:29:35;0.55;;;0.55;;
58972;SDS011;44750;52.040;7.472;2023-04-25T12:34:35;0.47;;;0.47;;
58972;SDS011;44750;52.040;7.472;2023-04-25T12:39:36;0.75;;;0.50;;
58972;SDS011;44750;52.040;7.472;2023-04-25T12:44:36;0.53;;;0.43;;
58972;SDS011;44750;52.040;7.472;2023-04-25T12:49:36;0.20;;;0.20;;
58972;SDS011;44750;52.040;7.472;2023-04-25T12:54:36;0.30;;;0.30;;
58972;SDS011;44750;52.040;7.472;2023-04-25T12:59:37;0.63;;;0.60;;
58972;SDS011;44750;52.040;7.472;2023-04-25T13:04:37;0.90;;;0.30;;
58972;SDS011;44750;52.040;7.472;2023-04-25T13:09:37;0.40;;;0.40;;
58972;SDS011;44750;52.040;7.472;2023-04-25T13:14:37;1.02;;;0.75;;
58972;SDS011;44750;52.040;7.472;2023-04-25T13:19:37;0.55;;;0.50;;
58972;SDS011;44750;52.040;7.472;2023-04-25T13:24:38;1.50;;;0.45;;
58972;SDS011;44750;52.040;7.472;2023-04-25T13:29:38;0.60;;;0.57;;
58972;SDS011;44750;52.040;7.472;2023-04-25T13:34:38;1.30;;;0.77;;
58972;SDS011;44750;52.040;7.472;2023-04-25T13:39:38;0.82;;;0.47;;
58972;SDS011;44750;52.040;7.472;2023-04-25T13:44:39;0.35;;;0.35;;
58972;SDS011;44750;52.040;7.472;2023-04-25T13:49:39;0.38;;;0.30;;
58972;SDS011;44750;52.040;7.472;2023-04-25T13:54:39;0.52;;;0.50;;
58972;SDS011;44750;52.040;7.472;2023-04-25T13:59:39;0.35;;;0.35;;
58972;SDS011;44750;52.040;7.472;2023-04-25T14:04:40;0.30;;;0.30;;
58972;SDS011;44750;52.040;7.472;2023-04-25T14:09:40;0.98;;;0.52;;
58972;SDS011;44750;52.040;7.472;2023-04-25T14:14:41;0.68;;;0.47;;
58972;SDS011;44750;52.040;7.472;2023-04-25T14:19:41;3.65;;;0.75;;
58972;SDS011;44750;52.040;7.472;2023-04-25T14:24:41;0.32;;;0.32;;
58972;SDS011;44750;52.040;7.472;2023-04-25T14:29:41;2.78;;;1.48;;
58972;SDS011;44750;52.040;7.472;2023-04-25T14:34:42;0.40;;;0.40;;
58972;SDS011;44750;52.040;7.472;2023-04-25T14:39:42;0.38;;;0.38;;
58972;SDS011;44750;52.040;7.472;2023-04-25T14:44:42;0.30;;;0.30;;
58972;SDS011;44750;52.040;7.472;2023-04-25T14:49:43;0.85;;;0.60;;
58972;SDS011;44750;52.040;7.472;2023-04-25T14:54:44;0.25;;;0.25;;
58972;SDS011;44750;52.040;7.472;2023-04-25T14:59:44;9.23;;;1.00;;
58972;SDS011;44750;52.040;7.472;2023-04-25T15:04:47;0.30;;;0.30;;
58972;SDS011;44750;52.040;7.472;2023-04-25T15:09:47;0.60;;;0.60;;
58972;SDS011;44750;52.040;7.472;2023-04-25T15:14:48;0.87;;;0.60;;
58972;SDS011;44750;52.040;7.472;2023-04-25T15:19:48;0.30;;;0.30;;
58972;SDS011;44750;52.040;7.472;2023-04-25T15:24:49;0.57;;;0.43;;
58972;SDS011;44750;52.040;7.472;2023-04-25T15:29:49;2.00;;;0.70;;
58972;SDS011;44750;52.040;7.472;2023-04-25T15:34:49;0.75;;;0.47;;
58972;SDS011;44750;52.040;7.472;2023-04-25T15:39:54;0.30;;;0.30;;
58972;SDS011;44750;52.040;7.472;2023-04-25T15:45:02;0.30;;;0.30;;
58972;SDS011;44750;52.040;7.472;2023-04-25T15:50:07;0.40;;;0.40;;
58972;SDS011;44750;52.040;7.472;2023-04-25T15:55:08;0.50;;;0.40;;
58972;SDS011;44750;52.040;7.472;2023-04-25T16:00:08;0.68;;;0.40;;
58972;SDS011;44750;52.040;7.472;2023-04-25T16:05:09;0.30;;;0.30;;
58972;SDS011;44750;52.040;7.472;2023-04-25T16:10:10;0.82;;;0.57;;
58972;SDS011;44750;52.040;7.472;2023-04-25T16:15:11;0.38;;;0.38;;
58972;SDS011;44750;52.040;7.472;2023-04-25T16:20:12;3.88;;;0.43;;
58972;SDS011;44750;52.040;7.472;2023-04-25T16:25:12;0.50;;;0.50;;
58972;SDS011;44750;52.040;7.472;2023-04-25T16:30:12;0.75;;;0.57;;
58972;SDS011;44750;52.040;7.472;2023-04-25T16:35:13;1.60;;;0.90;;
58972;SDS011;44750;52.040;7.472;2023-04-25T16:40:13;1.33;;;0.85;;
58972;SDS011;44750;52.040;7.472;2023-04-25T16:45:13;0.50;;;0.50;;
58972;SDS011;44750;52.040;7.472;2023-04-25T16:50:14;2.70;;;1.38;;
58972;SDS011;44750;52.040;7.472;2023-04-25T16:55:14;0.88;;;0.70;;
58972;SDS011;44750;52.040;7.472;2023-04-25T17:00:15;0.50;;;0.50;;
58972;SDS011;44750;52.040;7.472;2023-04-25T17:05:16;0.32;;;0.32;;
58972;SDS011;44750;52.040;7.472;2023-04-25T17:10:16;1.25;;;0.90;;
58972;SDS011;44750;52.040;7.472;2023-04-25T17:15:16;0.50;;;0.50;;
58972;SDS011;44750;52.040;7.472;2023-04-25T17:20:16;0.90;;;0.80;;
58972;SDS011;44750;52.040;7.472;2023-04-25T17:25:17;1.48;;;1.05;;
58972;SDS011;44750;52.040;7.472;2023-04-25T17:30:17;3.70;;;0.98;;
58972;SDS011;44750;52.040;7.472;2023-04-25T17:35:17;0.53;;;0.53;;
58972;SDS011;44750;52.040;7.472;2023-04-25T17:40:18;0.98;;;0.60;;
58972;SDS011;44750;52.040;7.472;2023-04-25T17:45:18;0.98;;;0.70;;
58972;SDS011;44750;52.040;7.472;2023-04-25T17:50:19;3.60;;;0.77;;
58972;SDS011;44750;52.040;7.472;2023-04-25T17:55:19;3.03;;;1.10;;
58972;SDS011;44750;52.040;7.472;2023-04-25T18:00:19;3.83;;;1.35;;
58972;SDS011;44750;52.040;7.472;2023-04-25T18:05:20;1.20;;;0.87;;
58972;SDS011;44750;52.040;7.472;2023-04-25T18:10:20;1.03;;;0.50;;
58972;SDS011;44750;52.040;7.472;2023-04-25T18:15:20;0.83;;;0.70;;
58972;SDS011;44750;52.040;7.472;2023-04-25T18:20:21;0.73;;;0.70;;
58972;SDS011;44750;52.040;7.472;2023-04-25T18:25:21;0.93;;;0.70;;
58972;SDS011;44750;52.040;7.472;2023-04-25T18:30:21;0.60;;;0.60;;
58972;SDS011;44750;52.040;7.472;2023-04-25T18:35:22;1.50;;;0.70;;
58972;SDS011;44750;52.040;7.472;2023-04-25T18:40:22;0.50;;;0.50;;
58972;SDS011;44750;52.040;7.472;2023-04-25T18:45:22;4.07;;;1.10;;
58972;SDS011;44750;52.040;7.472;2023-04-25T18:50:22;1.23;;;0.60;;
58972;SDS011;44750;52.040;7.472;2023-04-25T18:55:23;0.50;;;0.50;;
58972;SDS011;44750;52.040;7.472;2023-04-25T19:00:23;5.80;;;0.90;;
58972;SDS011;44750;52.040;7.472;2023-04-25T19:05:23;0.75;;;0.70;;
58972;SDS011;44750;52.040;7.472;2023-04-25T19:10:24;2.20;;;0.70;;
58972;SDS011;44750;52.040;7.472;2023-04-25T19:15:25;1.20;;;0.85;;
58972;SDS011;44750;52.040;7.472;2023-04-25T19:20:25;0.43;;;0.43;;
58972;SDS011;44750;52.040;7.472;2023-04-25T19:25:26;1.88;;;1.15;;
58972;SDS011;44750;52.040;7.472;2023-04-25T19:30:27;3.10;;;1.05;;
58972;SDS011;44750;52.040;7.472;2023-04-25T19:35:27;0.95;;;0.85;;
58972;SDS011;44750;52.040;7.472;2023-04-25T19:40:28;13.63;;;1.20;;
58972;SDS011;44750;52.040;7.472;2023-04-25T19:45:28;0.90;;;0.70;;
58972;SDS011;44750;52.040;7.472;2023-04-25T19:50:28;1.40;;;1.15;;
58972;SDS011;44750;52.040;7.472;2023-04-25T19:55:29;1.15;;;0.93;;
58972;SDS011;44750;52.040;7.472;2023-04-25T20:00:29;0.50;;;0.50;;
58972;SDS011;44750;52.040;7.472;2023-04-25T20:05:30;0.70;;;0.60;;
58972;SDS011;44750;52.040;7.472;2023-04-25T20:10:30;0.80;;;0.77;;
58972;SDS011;44750;52.040;7.472;2023-04-25T20:15:30;1.23;;;0.95;;
58972;SDS011;44750;52.040;7.472;2023-04-25T20:20:31;0.50;;;0.50;;
58972;SDS011;44750;52.040;7.472;2023-04-25T20:25:31;1.35;;;0.98;;
58972;SDS011;44750;52.040;7.472;2023-04-25T20:30:32;0.77;;;0.52;;
58972;SDS011;44750;52.040;7.472;2023-04-25T20:35:33;2.30;;;1.23;;
58972;SDS011;44750;52.040;7.472;2023-04-25T20:40:33;2.05;;;0.80;;
58972;SDS011;44750;52.040;7.472;2023-04-25T20:45:34;0.60;;;0.60;;
58972;SDS011;44750;52.040;7.472;2023-04-25T20:50:34;0.90;;;0.77;;
58972;SDS011;44750;52.040;7.472;2023-04-25T20:55:34;0.93;;;0.82;;
58972;SDS011;44750;52.040;7.472;2023-04-25T21:00:34;2.53;;;0.85;;
58972;SDS011;44750;52.040;7.472;2023-04-25T21:05:35;0.60;;;0.60;;
58972;SDS011;44750;52.040;7.472;2023-04-25T21:10:35;1.50;;;0.80;;
58972;SDS011;44750;52.040;7.472;2023-04-25T21:15:35;5.85;;;1.98;;
58972;SDS011;44750;52.040;7.472;2023-04-25T21:20:35;1.20;;;1.05;;
58972;SDS011;44750;52.040;7.472;2023-04-25T21:25:36;1.13;;;1.03;;
58972;SDS011;44750;52.040;7.472;2023-04-25T21:30:36;10.20;;;1.10;;
58972;SDS011;44750;52.040;7.472;2023-04-25T21:35:37;1.20;;;0.83;;
58972;SDS011;44750;52.040;7.472;2023-04-25T21:40:38;2.47;;;0.90;;
58972;SDS011;44750;52.040;7.472;2023-04-25T21:45:39;1.92;;;0.75;;
58972;SDS011;44750;52.040;7.472;2023-04-25T21:50:39;0.90;;;0.82;;
58972;SDS011;44750;52.040;7.472;2023-04-25T21:55:39;0.95;;;0.82;;
58972;SDS011;44750;52.040;7.472;2023-04-25T22:00:39;1.45;;;0.80;;
58972;SDS011;44750;52.040;7.472;2023-04-25T22:05:40;1.75;;;0.82;;
58972;SDS011;44750;52.040;7.472;2023-04-25T22:10:40;1.98;;;1.35;;
58972;SDS011;44750;52.040;7.472;2023-04-25T22:15:40;1.00;;;0.70;;
58972;SDS011;44750;52.040;7.472;2023-04-25T22:20:41;1.00;;;0.93;;
58972;SDS011;44750;52.040;7.472;2023-04-25T22:25:41;2.25;;;1.38;;
58972;SDS011;44750;52.040;7.472;2023-04-25T22:30:41;2.88;;;0.93;;
58972;SDS011;44750;52.040;7.472;2023-04-25T22:35:41;1.25;;;0.90;;
58972;SDS011;44750;52.040;7.472;2023-04-25T22:40:42;9.05;;;0.95;;
58972;SDS011;44750;52.040;7.472;2023-04-25T22:45:42;1.85;;;1.15;;
58972;SDS011;44750;52.040;7.472;2023-04-25T22:50:42;1.27;;;1.17;;
58972;SDS011;44750;52.040;7.472;2023-04-25T22:55:42;3.90;;;1.30;;
58972;SDS011;44750;52.040;7.472;2023-04-25T23:00:42;0.75;;;0.75;;
58972;SDS011;44750;52.040;7.472;2023-04-25T23:05:43;2.65;;;1.20;;
58972;SDS011;44750;52.040;7.472;2023-04-25T23:10:44;6.05;;;1.10;;
58972;SDS011;44750;52.040;7.472;2023-04-25T23:15:44;6.22;;;0.98;;
58972;SDS011;44750;52.040;7.472;2023-04-25T23:20:44;0.77;;;0.77;;
58972;SDS011;44750;52.040;7.472;2023-04-25T23:25:45;1.27;;;1.02;;
58972;SDS011;44750;52.040;7.472;2023-04-25T23:30:46;0.80;;;0.80;;
58972;SDS011;44750;52.040;7.472;2023-04-25T23:35:46;4.63;;;1.23;;
58972;SDS011;44750;52.040;7.472;2023-04-25T23:40:46;1.95;;;1.50;;
58972;SDS011;44750;52.040;7.472;2023-04-25T23:45:47;1.57;;;1.20;;
58972;SDS011;44750;52.040;7.472;2023-04-25T23:50:47;2.78;;;1.83;;
58972;SDS011;44750;52.040;7.472;2023-04-25T23:55:47;2.40;;;1.58;;
